createdAt,value
2022-08-04T00:00:13.071Z,5.03
2022-08-04T00:02:56.499Z,5.30
2022-08-04T00:05:37.055Z,7.00
2022-08-04T00:08:16.678Z,7.88
2022-08-04T00:10:50.369Z,4.70
2022-08-04T00:13:25.113Z,4.72
2022-08-04T00:15:54.628Z,4.90
2022-08-04T00:18:27.947Z,4.80
2022-08-04T00:21:00.479Z,4.75
2022-08-04T00:24:10.598Z,4.88
2022-08-04T00:26:19.657Z,3.90
2022-08-04T00:28:49.909Z,5.38
2022-08-04T00:31:19.094Z,4.10
2022-08-04T00:34:07.462Z,4.40
2022-08-04T00:36:36.027Z,4.60
2022-08-04T00:39:04.411Z,6.85
2022-08-04T00:41:56.087Z,4.82
2022-08-04T00:44:34.269Z,4.78
2022-08-04T00:47:12.444Z,4.78
2022-08-04T00:50:19.996Z,4.03
2022-08-04T00:53:09.302Z,4.30
2022-08-04T00:56:06.495Z,4.78
2022-08-04T00:58:44.708Z,3.70
2022-08-04T01:01:37.688Z,4.32
2022-08-04T01:04:16.370Z,4.53
2022-08-04T01:07:08.372Z,4.80
2022-08-04T01:09:49.041Z,5.95
2022-08-04T01:12:34.032Z,4.10
2022-08-04T01:15:07.766Z,5.25
2022-08-04T01:17:49.922Z,4.30
2022-08-04T01:20:22.886Z,4.50
2022-08-04T01:23:33.772Z,4.55
2022-08-04T01:26:42.585Z,5.88
2022-08-04T01:29:23.827Z,4.78
2022-08-04T01:32:02.237Z,5.07
2022-08-04T01:34:32.753Z,5.07
2022-08-04T01:37:10.078Z,6.00
2022-08-04T01:39:50.743Z,5.10
2022-08-04T01:42:31.882Z,5.50
2022-08-04T01:45:04.031Z,4.90
2022-08-04T01:47:35.313Z,5.15
2022-08-04T01:50:07.349Z,4.78
2022-08-04T01:52:37.329Z,5.47
2022-08-04T01:55:09.467Z,4.55
2022-08-04T01:57:42.433Z,4.55
2022-08-04T02:00:14.332Z,4.68
2022-08-04T02:02:42.846Z,5.65
2022-08-04T02:05:12.460Z,4.60
2022-08-04T02:08:00.622Z,5.13
2022-08-04T02:10:31.627Z,5.10
2022-08-04T02:13:12.163Z,4.78
2022-08-04T02:15:49.050Z,4.90
2022-08-04T02:18:25.860Z,4.82
2022-08-04T02:20:59.583Z,6.20
2022-08-04T02:23:35.142Z,4.90
2022-08-04T02:26:05.106Z,4.63
2022-08-04T02:28:39.192Z,5.00
2022-08-04T02:31:20.076Z,4.68
2022-08-04T02:33:56.491Z,6.50
2022-08-04T02:36:31.800Z,5.20
2022-08-04T02:39:02.750Z,6.03
2022-08-04T02:41:32.499Z,4.85
2022-08-04T02:44:02.588Z,4.70
2022-08-04T02:46:34.659Z,5.10
2022-08-04T02:49:04.864Z,5.10
2022-08-04T02:51:36.208Z,4.70
2022-08-04T02:54:06.840Z,4.93
2022-08-04T02:56:37.453Z,4.57
2022-08-04T02:59:08.953Z,6.13
2022-08-04T03:01:56.523Z,5.03
2022-08-04T03:04:44.290Z,5.45
2022-08-04T03:07:44.463Z,5.50
2022-08-04T03:10:38.742Z,5.57
2022-08-04T03:13:30.143Z,8.95
2022-08-04T03:16:38.905Z,5.50
2022-08-04T03:19:36.808Z,7.07
2022-08-04T03:22:30.584Z,5.75
2022-08-04T03:25:32.396Z,9.15
2022-08-04T03:28:28.265Z,5.28
2022-08-04T03:31:18.873Z,5.63
2022-08-04T03:34:06.045Z,5.47
2022-08-04T03:37:03.012Z,5.30
2022-08-04T03:40:24.548Z,4.60
2022-08-04T03:43:57.653Z,5.85
2022-08-04T03:47:11.369Z,5.68
2022-08-04T03:50:09.893Z,4.97
2022-08-04T03:53:11.828Z,5.70
2022-08-04T03:56:12.318Z,5.55
2022-08-04T03:59:25.062Z,5.78
2022-08-04T04:02:21.964Z,5.90
2022-08-04T04:05:24.539Z,6.53
2022-08-04T04:08:27.818Z,5.40
2022-08-04T04:11:20.968Z,6.95
2022-08-04T04:14:17.067Z,6.50
2022-08-04T04:17:09.922Z,6.40
2022-08-04T04:20:15.002Z,5.85
2022-08-04T04:23:01.594Z,5.45
2022-08-04T04:25:40.932Z,5.47
2022-08-04T04:28:44.661Z,6.13
2022-08-04T04:31:39.336Z,6.13
2022-08-04T04:34:17.932Z,7.25
2022-08-04T04:36:56.859Z,7.43
2022-08-04T04:39:33.768Z,6.03
2022-08-04T04:42:24.847Z,8.27
2022-08-04T04:45:06.794Z,10.20
2022-08-04T04:48:08.052Z,8.93
2022-08-04T04:50:48.587Z,6.72
2022-08-04T04:53:25.379Z,6.93
2022-08-04T04:56:04.688Z,6.13
2022-08-04T04:58:37.025Z,6.45
2022-08-04T05:01:24.167Z,5.97
2022-08-04T05:04:12.919Z,6.90
2022-08-04T05:06:55.480Z,6.45
2022-08-04T05:09:33.830Z,8.13
2022-08-04T05:14:31.988Z,7.22
2022-08-04T05:15:36.835Z,6.78
2022-08-04T05:18:08.422Z,8.55
2022-08-04T05:20:40.345Z,5.88
2022-08-04T05:23:14.946Z,5.78
2022-08-04T05:28:35.184Z,7.25
2022-08-04T05:31:12.115Z,5.28
2022-08-04T05:33:44.574Z,5.10
2022-08-04T05:36:32.660Z,6.82
2022-08-04T05:39:08.529Z,5.72
2022-08-04T05:41:45.276Z,5.60
2022-08-04T05:44:16.271Z,7.68
2022-08-04T05:46:54.089Z,10.20
2022-08-04T05:49:24.270Z,9.30
2022-08-04T05:51:53.704Z,6.93
2022-08-04T05:54:22.939Z,6.72
2022-08-04T05:56:52.049Z,9.82
2022-08-04T05:59:21.775Z,8.50
2022-08-04T06:01:54.927Z,5.00
2022-08-04T06:04:25.976Z,6.13
2022-08-04T06:06:55.356Z,5.82
2022-08-04T06:09:23.440Z,6.95
2022-08-04T06:12:00.730Z,5.22
2022-08-04T06:14:37.036Z,5.15
2022-08-04T06:18:33.429Z,4.43
2022-08-04T06:20:19.305Z,8.48
2022-08-04T06:22:48.962Z,6.15
2022-08-04T06:25:20.624Z,6.82
2022-08-04T06:27:50.449Z,6.50
2022-08-04T06:30:20.157Z,4.38
2022-08-04T06:33:03.458Z,5.50
2022-08-04T06:35:34.338Z,4.88
2022-08-04T06:38:03.826Z,3.72
2022-08-04T06:40:34.010Z,4.40
2022-08-04T06:43:03.241Z,6.50
2022-08-04T06:45:32.136Z,4.65
2022-08-04T06:48:02.031Z,3.65
2022-08-04T06:51:30.580Z,2.85
2022-08-04T06:53:20.489Z,3.97
2022-08-04T06:55:50.234Z,3.42
2022-08-04T06:58:20.438Z,3.65
2022-08-04T07:00:49.609Z,3.20
2022-08-04T07:03:23.047Z,4.70
2022-08-04T07:05:53.066Z,3.75
2022-08-04T07:08:22.073Z,4.18
2022-08-04T07:10:50.348Z,4.15
2022-08-04T07:13:20.185Z,3.45
2022-08-04T07:15:49.545Z,3.20
2022-08-04T07:18:18.012Z,6.25
2022-08-04T07:20:48.028Z,4.25
2022-08-04T07:23:19.728Z,3.80
2022-08-04T07:26:11.210Z,3.55
2022-08-04T07:28:41.787Z,4.50
2022-08-04T07:31:33.326Z,3.60
2022-08-04T07:34:17.323Z,3.35
2022-08-04T07:36:55.449Z,4.03
2022-08-04T07:39:27.424Z,4.20
2022-08-04T07:41:57.494Z,4.72
2022-08-04T07:44:25.941Z,3.53
2022-08-04T07:46:54.469Z,4.53
2022-08-04T07:49:56.301Z,3.35
2022-08-04T07:52:12.555Z,4.15
2022-08-04T07:54:41.380Z,5.78
2022-08-04T07:57:09.556Z,4.07
2022-08-04T07:59:50.362Z,3.65
2022-08-04T08:02:21.471Z,3.17
2022-08-04T08:04:50.247Z,3.17
2022-08-04T08:07:20.867Z,4.65
2022-08-04T08:09:49.287Z,3.70
2022-08-04T08:12:37.648Z,4.57
2022-08-04T08:15:06.702Z,3.90
2022-08-04T08:17:57.876Z,3.17
2022-08-04T08:20:29.209Z,3.42
2022-08-04T08:22:59.737Z,3.60
2022-08-04T08:25:28.025Z,2.75
2022-08-04T08:27:56.826Z,4.03
2022-08-04T08:30:31.736Z,3.80
2022-08-04T08:33:02.563Z,3.65
2022-08-04T08:35:39.782Z,3.28
2022-08-04T08:38:34.614Z,3.75
2022-08-04T08:41:22.264Z,3.50
2022-08-04T08:44:07.638Z,3.80
2022-08-04T08:46:52.379Z,3.97
2022-08-04T08:50:04.007Z,5.40
2022-08-04T08:53:01.752Z,4.50
2022-08-04T08:55:41.773Z,4.25
2022-08-04T08:58:41.468Z,3.42
2022-08-04T09:01:24.223Z,3.90
2022-08-04T09:04:23.530Z,3.67
2022-08-04T09:07:24.593Z,4.40
2022-08-04T09:10:07.388Z,3.58
2022-08-04T09:12:46.371Z,3.20
2022-08-04T09:15:16.913Z,3.60
2022-08-04T09:17:51.097Z,2.92
2022-08-04T09:20:26.684Z,3.65
2022-08-04T09:23:07.999Z,2.92
2022-08-04T09:25:42.123Z,2.90
2022-08-04T09:28:43.719Z,3.05
2022-08-04T09:31:14.507Z,3.10
2022-08-04T09:33:50.338Z,2.80
2022-08-04T09:36:33.129Z,2.92
2022-08-04T09:39:10.710Z,2.80
2022-08-04T09:41:49.332Z,2.33
2022-08-04T09:44:50.228Z,2.53
2022-08-04T09:47:25.975Z,2.90
2022-08-04T09:50:17.584Z,2.65
2022-08-04T09:52:51.206Z,3.28
2022-08-04T09:55:32.218Z,2.20
2022-08-04T09:58:06.677Z,2.38
2022-08-04T10:00:45.101Z,2.58
2022-08-04T10:03:19.903Z,2.58
2022-08-04T10:06:01.936Z,2.22
2022-08-04T10:08:45.358Z,4.05
2022-08-04T10:11:19.796Z,2.53
2022-08-04T10:13:54.618Z,2.40
2022-08-04T10:16:39.357Z,3.00
2022-08-04T10:19:19.638Z,2.60
2022-08-04T10:22:27.064Z,2.67
2022-08-04T10:24:57.157Z,3.28
2022-08-04T10:27:31.540Z,2.47
2022-08-04T10:30:04.265Z,2.55
2022-08-04T10:32:43.114Z,2.53
2022-08-04T10:35:15.146Z,2.92
2022-08-04T10:38:01.155Z,3.28
2022-08-04T10:40:37.750Z,2.38
2022-08-04T10:43:22.674Z,2.45
2022-08-04T10:45:57.945Z,2.72
2022-08-04T10:48:37.528Z,2.70
2022-08-04T10:51:20.058Z,2.40
2022-08-04T10:53:54.038Z,2.38
2022-08-04T10:56:30.855Z,2.78
2022-08-04T10:59:03.423Z,1.90
2022-08-04T11:01:50.644Z,2.08
2022-08-04T11:04:29.222Z,2.35
2022-08-04T11:06:59.510Z,2.55
2022-08-04T11:09:29.992Z,2.25
2022-08-04T11:12:04.764Z,3.47
2022-08-04T11:14:38.916Z,2.38
2022-08-04T11:17:12.391Z,2.38
2022-08-04T11:19:53.649Z,2.17
2022-08-04T11:22:27.232Z,2.13
2022-08-04T11:25:01.232Z,2.40
2022-08-04T11:27:36.853Z,4.00
2022-08-04T11:30:07.284Z,3.88
2022-08-04T11:32:41.046Z,2.30
2022-08-04T11:35:17.511Z,2.55
2022-08-04T11:37:50.659Z,3.28
2022-08-04T11:40:25.617Z,2.15
2022-08-04T11:42:57.860Z,3.58
2022-08-04T11:45:32.486Z,2.35
2022-08-04T11:48:05.736Z,2.53
2022-08-04T11:50:41.757Z,2.55
2022-08-04T11:53:15.688Z,2.75
2022-08-04T11:56:07.077Z,2.60
2022-08-04T11:58:33.548Z,2.60
2022-08-04T12:01:09.890Z,2.15
2022-08-04T12:04:03.757Z,2.30
2022-08-04T12:06:40.226Z,2.10
2022-08-04T12:09:23.788Z,2.80
2022-08-04T12:12:01.504Z,3.50
2022-08-04T12:14:44.411Z,2.22
2022-08-04T12:17:17.165Z,2.33
2022-08-04T12:20:04.213Z,2.22
2022-08-04T12:22:49.103Z,2.20
2022-08-04T12:25:22.749Z,2.00
2022-08-04T12:27:56.493Z,2.85
2022-08-04T12:30:57.733Z,2.08
2022-08-04T12:33:23.210Z,1.95
2022-08-04T12:36:21.456Z,4.55
2022-08-04T12:39:04.261Z,1.95
2022-08-04T12:41:39.625Z,2.95
2022-08-04T12:44:37.414Z,2.47
2022-08-04T12:47:27.842Z,2.42
2022-08-04T12:50:00.130Z,2.22
2022-08-04T12:53:01.016Z,1.92
2022-08-04T12:55:23.916Z,2.10
2022-08-04T12:57:54.743Z,2.20
2022-08-04T13:00:31.336Z,2.58
2022-08-04T13:03:09.873Z,2.13
2022-08-04T13:05:40.883Z,2.05
2022-08-04T13:08:11.250Z,2.80
2022-08-04T13:10:43.457Z,2.50
2022-08-04T13:13:18.005Z,2.15
2022-08-04T13:15:57.621Z,2.97
2022-08-04T13:18:30.445Z,2.40
2022-08-04T13:21:20.838Z,2.03
2022-08-04T13:24:19.737Z,2.70
2022-08-04T13:26:55.160Z,2.40
2022-08-04T13:29:58.099Z,3.10
2022-08-04T13:32:18.633Z,2.22
2022-08-04T13:34:49.594Z,1.88
2022-08-04T13:37:23.223Z,1.60
2022-08-04T13:39:55.177Z,1.90
2022-08-04T13:42:27.012Z,2.35
2022-08-04T13:44:58.115Z,2.47
2022-08-04T13:47:30.163Z,2.05
2022-08-04T13:50:12.155Z,1.60
2022-08-04T13:52:42.085Z,2.10
2022-08-04T13:55:19.113Z,1.92
2022-08-04T13:57:52.258Z,1.88
2022-08-04T14:00:30.241Z,2.17
2022-08-04T14:03:03.326Z,2.08
2022-08-04T14:05:58.877Z,2.10
2022-08-04T14:08:26.464Z,2.53
2022-08-04T14:10:58.267Z,1.75
2022-08-04T14:13:41.039Z,1.98
2022-08-04T14:16:21.222Z,2.00
2022-08-04T14:18:58.303Z,2.10
2022-08-04T14:21:26.777Z,1.58
2022-08-04T14:23:56.537Z,1.58
2022-08-04T14:26:31.374Z,1.73
2022-08-04T14:29:27.345Z,1.88
2022-08-04T14:32:04.402Z,1.83
2022-08-04T14:34:41.550Z,1.55
2022-08-04T14:37:16.762Z,2.00
2022-08-04T14:40:18.744Z,2.05
2022-08-04T14:42:59.010Z,3.20
2022-08-04T14:45:34.022Z,3.22
2022-08-04T14:48:03.266Z,1.92
2022-08-04T14:50:37.130Z,1.75
2022-08-04T14:53:07.426Z,1.70
2022-08-04T14:55:35.838Z,1.90
2022-08-04T14:58:36.761Z,2.22
2022-08-04T15:00:56.825Z,1.67
2022-08-04T15:03:25.783Z,1.67
2022-08-04T15:06:00.857Z,2.33
2022-08-04T15:08:34.574Z,1.77
2022-08-04T15:11:03.684Z,1.50
2022-08-04T15:13:33.448Z,1.60
2022-08-04T15:16:06.678Z,1.77
2022-08-04T15:18:39.076Z,2.80
2022-08-04T15:21:09.486Z,2.53
2022-08-04T15:23:39.193Z,1.90
2022-08-04T15:26:13.189Z,1.52
2022-08-04T15:28:47.228Z,1.58
2022-08-04T15:32:04.436Z,1.60
2022-08-04T15:34:07.963Z,1.80
2022-08-04T15:36:56.854Z,1.85
2022-08-04T15:39:39.300Z,1.75
2022-08-04T15:42:20.858Z,1.67
2022-08-04T15:45:21.453Z,1.63
2022-08-04T15:48:33.996Z,1.65
2022-08-04T15:51:07.098Z,1.30
2022-08-04T15:54:21.163Z,1.52
2022-08-04T15:57:01.543Z,1.60
2022-08-04T16:00:00.505Z,1.33
2022-08-04T16:02:49.487Z,1.80
2022-08-04T16:05:39.615Z,1.45
2022-08-04T16:08:27.800Z,1.73
2022-08-04T16:10:55.836Z,2.47
2022-08-04T16:13:25.089Z,1.65
2022-08-04T16:15:55.457Z,1.50
2022-08-04T16:18:43.621Z,1.75
2022-08-04T16:21:23.923Z,1.63
2022-08-04T16:24:10.720Z,1.67
2022-08-04T16:26:54.821Z,1.83
2022-08-04T16:29:42.795Z,2.00
2022-08-04T16:32:19.262Z,1.38
2022-08-04T16:34:55.450Z,1.52
2022-08-04T16:37:30.453Z,1.63
2022-08-04T16:40:36.604Z,2.25
2022-08-04T16:43:08.991Z,1.30
2022-08-04T16:45:48.541Z,1.60
2022-08-04T16:48:17.906Z,1.60
2022-08-04T16:51:05.851Z,2.33
2022-08-04T16:54:02.623Z,2.83
2022-08-04T16:56:35.417Z,2.22
2022-08-04T16:59:09.110Z,1.85
2022-08-04T17:01:37.826Z,1.50
2022-08-04T17:04:06.988Z,1.40
2022-08-04T17:06:37.538Z,1.83
2022-08-04T17:09:08.305Z,1.60
2022-08-04T17:11:38.020Z,2.42
2022-08-04T17:14:06.686Z,1.35
2022-08-04T17:16:37.035Z,2.63
2022-08-04T17:19:06.478Z,1.50
2022-08-04T17:21:38.003Z,1.40
2022-08-04T17:24:15.998Z,1.33
2022-08-04T17:26:51.962Z,1.60
2022-08-04T17:29:43.125Z,1.60
2022-08-04T17:32:18.778Z,1.48
2022-08-04T17:34:51.084Z,1.90
2022-08-04T17:37:38.395Z,1.75
2022-08-04T17:40:10.664Z,1.60
2022-08-04T17:42:41.506Z,2.88
2022-08-04T17:48:02.952Z,1.65
2022-08-04T17:50:35.671Z,2.72
2022-08-04T17:53:12.055Z,2.25
2022-08-04T17:55:46.906Z,3.28
2022-08-04T17:58:20.903Z,3.30
2022-08-04T18:01:16.684Z,2.05
2022-08-04T18:03:51.577Z,2.53
2022-08-04T18:06:21.994Z,1.67
2022-08-04T18:08:57.518Z,2.30
2022-08-04T18:11:29.834Z,2.28
2022-08-04T18:14:10.899Z,4.45
2022-08-04T18:16:46.260Z,2.03
2022-08-04T18:19:18.862Z,2.30
2022-08-04T18:21:59.745Z,3.85
2022-08-04T18:24:35.708Z,4.95
2022-08-04T18:27:20.485Z,2.88
2022-08-04T18:29:56.453Z,2.22
2022-08-04T18:32:44.006Z,2.00
2022-08-04T18:36:31.373Z,2.25
2022-08-04T18:38:22.329Z,4.22
2022-08-04T18:40:53.581Z,2.15
2022-08-04T18:43:28.005Z,2.03
2022-08-04T18:45:59.585Z,3.97
2022-08-04T18:48:35.968Z,2.42
2022-08-04T18:51:22.423Z,3.15
2022-08-04T18:53:58.608Z,5.78
2022-08-04T18:56:29.595Z,2.30
2022-08-04T18:58:59.821Z,1.85
2022-08-04T19:01:29.600Z,1.90
2022-08-04T19:04:00.110Z,3.30
2022-08-04T19:06:28.296Z,2.53
2022-08-04T19:08:58.270Z,2.72
2022-08-04T19:11:53.363Z,2.75
2022-08-04T19:14:14.432Z,4.53
2022-08-04T19:16:45.669Z,4.90
2022-08-04T19:19:17.928Z,2.72
2022-08-04T19:22:01.590Z,4.57
2022-08-04T19:24:34.553Z,3.35
2022-08-04T19:27:07.599Z,3.08
2022-08-04T19:29:41.192Z,2.20
2022-08-04T19:32:14.988Z,5.18
2022-08-04T19:34:47.451Z,5.60
2022-08-04T19:37:57.097Z,4.15
2022-08-04T19:40:06.825Z,3.47
2022-08-04T19:42:37.813Z,3.78
2022-08-04T19:45:06.951Z,4.97
2022-08-04T19:48:17.189Z,2.78
2022-08-04T19:50:24.814Z,3.83
2022-08-04T19:52:53.249Z,2.78
2022-08-04T19:55:22.978Z,3.60
2022-08-04T19:58:08.276Z,2.28
2022-08-04T20:00:37.631Z,2.97
2022-08-04T20:03:11.433Z,3.90
2022-08-04T20:05:53.290Z,2.92
2022-08-04T20:08:23.705Z,3.85
2022-08-04T20:10:52.704Z,4.97
2022-08-04T20:13:25.196Z,2.72
2022-08-04T20:15:59.152Z,2.40
2022-08-04T20:18:54.621Z,2.58
2022-08-04T20:21:24.251Z,2.47
2022-08-04T20:24:38.679Z,2.88
2022-08-04T20:26:53.510Z,2.63
2022-08-04T20:29:40.144Z,2.72
2022-08-04T20:32:09.695Z,3.20
2022-08-04T20:34:38.014Z,2.40
2022-08-04T20:37:10.569Z,2.75
2022-08-04T20:39:39.280Z,3.67
2022-08-04T20:42:07.843Z,2.95
2022-08-04T20:44:42.353Z,3.83
2022-08-04T20:47:14.392Z,2.65
2022-08-04T20:49:42.647Z,2.65
2022-08-04T20:52:20.126Z,2.33
2022-08-04T20:54:49.286Z,2.65
2022-08-04T20:57:48.199Z,4.82
2022-08-04T21:00:13.624Z,2.30
2022-08-04T21:02:41.741Z,2.60
2022-08-04T21:05:12.602Z,3.28
2022-08-04T21:07:44.048Z,3.13
2022-08-04T21:10:17.183Z,2.45
2022-08-04T21:12:50.087Z,2.53
2022-08-04T21:15:25.016Z,2.45
2022-08-04T21:17:57.600Z,2.35
2022-08-04T21:20:28.660Z,2.78
2022-08-04T21:22:59.850Z,2.45
2022-08-04T21:25:30.790Z,4.40
2022-08-04T21:28:04.397Z,2.67
2022-08-04T21:30:54.764Z,3.08
2022-08-04T21:33:49.018Z,3.40
2022-08-04T21:36:13.669Z,3.47
2022-08-04T21:41:32.658Z,2.85
2022-08-04T21:44:00.716Z,5.75
2022-08-04T21:46:31.730Z,5.07
2022-08-04T21:48:59.825Z,2.95
2022-08-04T21:51:59.890Z,3.00
2022-08-04T21:54:18.353Z,3.60
2022-08-04T21:56:51.384Z,3.22
2022-08-04T21:59:23.280Z,3.13
2022-08-04T22:01:56.503Z,3.95
2022-08-04T22:04:24.594Z,3.72
2022-08-04T22:06:52.817Z,4.38
2022-08-04T22:09:22.706Z,3.00
2022-08-04T22:11:51.930Z,4.15
2022-08-04T22:14:29.427Z,6.10
2022-08-04T22:17:02.597Z,3.90
2022-08-04T22:19:50.135Z,3.75
2022-08-04T22:22:24.381Z,3.88
2022-08-04T22:24:58.381Z,3.25
2022-08-04T22:27:47.689Z,4.30
2022-08-04T22:30:24.112Z,3.47
2022-08-04T22:32:52.533Z,4.57
2022-08-04T22:35:36.190Z,4.25
2022-08-04T22:38:22.350Z,4.50
2022-08-04T22:41:00.126Z,3.38
2022-08-04T22:43:31.933Z,3.40
2022-08-04T22:46:03.864Z,3.83
2022-08-04T22:48:33.836Z,3.42
2022-08-04T22:51:02.631Z,3.30
2022-08-04T22:53:31.528Z,3.72
2022-08-04T22:56:10.134Z,3.60
2022-08-04T22:58:40.330Z,4.32
2022-08-04T23:01:09.219Z,3.30
2022-08-04T23:03:38.635Z,3.67
2022-08-04T23:06:10.788Z,4.22
2022-08-04T23:08:43.096Z,3.00
2022-08-04T23:11:15.955Z,3.20
2022-08-04T23:13:43.980Z,3.05
2022-08-04T23:16:12.411Z,3.10
2022-08-04T23:18:41.994Z,3.47
2022-08-04T23:21:11.502Z,3.97
2022-08-04T23:23:47.714Z,3.47
2022-08-04T23:26:29.765Z,3.17
